Time;durP1;ratioP1;P1;durP2;ratioP2;P2;SDS_P1;SDS_P2;PMS_P1;PMS_P2;Temp;Humidity;BMP_temperature;BMP_pressure;BME280_temperature;BME280_humidity;BME280_pressure;Samples;Min_cycle;Max_cycle;Signal;HPM_P1;HPM_P2
2022/02/16 00:03:09;;;;;;;3.20;2.20;;;7.30;94.70;;;;;;10467035;28;20230;-88
2022/02/16 00:08:12;;;;;;;2.17;1.87;;;7.40;94.60;;;;;;10515434;28;20200;-89
2022/02/16 00:13:15;;;;;;;2.87;2.23;;;7.50;94.70;;;;;;10498622;28;20201;-89
2022/02/16 00:18:18;;;;;;;4.27;2.03;;;7.50;94.40;;;;;;10496834;28;20205;-87
2022/02/16 00:23:21;;;;;;;2.57;2.20;;;7.40;94.90;;;;;;10477218;28;20221;-87
2022/02/16 00:28:25;;;;;;;2.60;2.10;;;7.40;94.30;;;;;;10438231;28;20260;-87
2022/02/16 00:33:30;;;;;;;6.47;2.40;;;7.40;94.30;;;;;;10476384;28;20221;-84
2022/02/16 00:38:32;;;;;;;2.83;2.30;;;7.40;94.30;;;;;;10462408;28;20312;-85
2022/02/16 00:43:36;;;;;;;2.17;1.97;;;7.30;94.70;;;;;;10414378;28;20225;-87
2022/02/16 00:48:38;;;;;;;2.77;2.03;;;7.40;94.00;;;;;;10423589;28;20793;-87
2022/02/16 00:53:40;;;;;;;2.20;2.00;;;7.30;94.50;;;;;;10438124;28;20224;-86
2022/02/16 00:58:44;;;;;;;2.20;1.90;;;7.40;94.30;;;;;;10445382;28;20209;-87
2022/02/16 01:03:46;;;;;;;2.50;2.03;;;7.40;93.80;;;;;;10427610;28;20641;-87
2022/02/16 01:08:49;;;;;;;2.60;1.93;;;7.40;93.90;;;;;;10411011;28;20229;-87
2022/02/16 01:13:53;;;;;;;2.83;1.97;;;7.40;94.20;;;;;;10440206;28;20229;-87
2022/02/16 01:18:56;;;;;;;1.83;1.73;;;7.40;94.50;;;;;;10439615;28;20213;-88
2022/02/16 01:23:58;;;;;;;3.70;2.33;;;7.40;94.30;;;;;;10458703;28;20272;-87
2022/02/16 01:29:02;;;;;;;3.60;1.97;;;7.50;94.30;;;;;;10424116;28;20309;-87
2022/02/16 01:34:11;;;;;;;3.83;2.23;;;7.50;94.30;;;;;;10439849;28;20236;-87
2022/02/16 01:39:14;;;;;;;2.33;2.13;;;7.60;94.30;;;;;;10433052;28;20268;-87
2022/02/16 01:44:23;;;;;;;2.60;1.70;;;7.60;94.60;;;;;;10421158;28;20233;-86
2022/02/16 01:49:27;;;;;;;3.53;1.97;;;7.70;94.20;;;;;;10454299;28;20220;-87
2022/02/16 01:54:31;;;;;;;3.00;2.20;;;7.70;94.80;;;;;;10433374;28;20227;-87
2022/02/16 01:59:35;;;;;;;3.23;2.03;;;7.70;94.10;;;;;;10431294;28;20207;-85
2022/02/16 02:04:56;;;;;;;1.73;1.63;;;7.60;94.30;;;;;;10448711;28;20244;-84
2022/02/16 02:09:58;;;;;;;1.90;1.80;;;7.70;94.40;;;;;;10412290;28;20247;-85
2022/02/16 02:15:14;;;;;;;1.90;1.80;;;7.70;94.70;;;;;;10412977;28;20320;-84
2022/02/16 02:20:40;;;;;;;2.70;2.07;;;7.70;94.80;;;;;;10449413;28;20201;-84
2022/02/16 02:25:57;;;;;;;2.00;1.80;;;7.80;95.00;;;;;;10475685;23;20229;-87
2022/02/16 02:36:42;;;;;;;2.00;1.80;;;7.80;93.90;;;;;;10407261;28;20194;-87
2022/02/16 02:41:47;;;;;;;2.40;1.80;;;7.80;94.30;;;;;;10392633;28;20198;-85
2022/02/16 02:46:53;;;;;;;2.07;1.87;;;7.80;94.40;;;;;;10376740;28;20253;-84
2022/02/16 02:52:04;;;;;;;3.40;1.60;;;7.80;94.40;;;;;;10355704;28;20226;-87
2022/02/16 02:57:10;;;;;;;2.47;1.57;;;7.80;94.30;;;;;;10384901;28;20583;-84
2022/02/16 03:02:18;;;;;;;2.00;1.90;;;7.80;94.90;;;;;;10392500;28;20230;-87
2022/02/16 03:07:23;;;;;;;1.63;1.53;;;7.90;94.50;;;;;;10410933;28;20682;-85
2022/02/16 03:12:26;;;;;;;2.30;1.50;;;7.90;94.70;;;;;;10377358;28;20229;-84
2022/02/16 03:17:29;;;;;;;3.90;1.80;;;7.90;94.50;;;;;;10397943;28;20222;-87
2022/02/16 03:22:35;;;;;;;2.10;1.57;;;7.80;94.80;;;;;;10393286;28;20320;-85
2022/02/16 03:27:41;;;;;;;1.70;1.60;;;7.90;94.70;;;;;;10382910;28;20222;-87
2022/02/16 03:32:46;;;;;;;2.30;1.73;;;7.90;95.10;;;;;;10389356;28;20221;-87
2022/02/16 03:37:51;;;;;;;1.60;1.50;;;7.90;95.10;;;;;;10400576;28;20194;-87
2022/02/16 03:42:54;;;;;;;2.00;1.50;;;7.90;95.40;;;;;;10402760;28;20224;-83
2022/02/16 03:48:00;;;;;;;4.20;1.97;;;8.00;94.80;;;;;;10399247;28;20313;-88
2022/02/16 03:53:16;;;;;;;2.13;1.93;;;8.10;95.50;;;;;;10406905;28;20721;-86
2022/02/16 03:58:29;;;;;;;2.63;2.07;;;8.10;94.90;;;;;;10408559;28;20204;-87
2022/02/16 04:03:33;;;;;;;2.23;2.13;;;8.10;94.50;;;;;;10387335;28;20314;-85
2022/02/16 04:08:40;;;;;;;2.17;1.97;;;8.10;94.90;;;;;;10393832;28;20225;-85
2022/02/16 04:13:42;;;;;;;1.50;1.20;;;8.20;94.80;;;;;;10380169;28;20665;-87
2022/02/16 04:18:52;;;;;;;2.77;2.50;;;8.20;94.90;;;;;;10391201;28;20213;-87
2022/02/16 04:24:03;;;;;;;1.70;1.60;;;8.20;94.90;;;;;;10392645;28;20260;-86
2022/02/16 04:29:06;;;;;;;2.37;2.17;;;8.30;94.30;;;;;;10413056;28;20260;-85
2022/02/16 04:34:32;;;;;;;2.20;1.73;;;8.30;94.40;;;;;;10437130;28;20276;-86
2022/02/16 04:39:48;;;;;;;2.13;2.03;;;8.20;94.70;;;;;;10391857;28;20200;-85
2022/02/16 04:45:04;;;;;;;2.00;1.90;;;8.20;94.70;;;;;;10384961;28;20221;-87
2022/02/16 04:50:09;;;;;;;1.70;1.60;;;8.20;94.90;;;;;;10380713;28;20656;-85
2022/02/16 04:55:17;;;;;;;1.60;1.50;;;8.20;95.30;;;;;;10391295;28;20299;-85
2022/02/16 05:00:30;;;;;;;1.93;1.37;;;8.30;95.30;;;;;;10392392;28;20195;-86
2022/02/16 05:06:05;;;;;;;1.63;1.30;;;8.40;95.20;;;;;;10413442;28;20226;-85
2022/02/16 05:11:09;;;;;;;1.93;1.63;;;8.40;95.30;;;;;;10409755;28;20222;-86
2022/02/16 05:16:27;;;;;;;1.17;1.07;;;8.30;95.90;;;;;;10396503;28;20223;-85
2022/02/16 05:21:32;;;;;;;4.03;1.10;;;8.40;95.60;;;;;;10410575;28;20233;-85
2022/02/16 05:26:39;;;;;;;1.67;1.57;;;8.40;95.60;;;;;;10417409;28;20218;-85
2022/02/16 05:31:42;;;;;;;1.30;1.30;;;8.50;95.70;;;;;;10398966;28;20617;-86
2022/02/16 05:36:45;;;;;;;1.87;1.37;;;8.40;95.90;;;;;;10407246;28;20281;-85
2022/02/16 05:41:51;;;;;;;1.87;1.77;;;8.40;96.10;;;;;;10408212;28;20205;-86
2022/02/16 05:47:19;;;;;;;1.50;1.40;;;8.30;95.80;;;;;;10409574;28;20562;-84
2022/02/16 05:52:21;;;;;;;1.73;1.20;;;8.30;96.20;;;;;;10389517;28;20217;-85
2022/02/16 05:57:26;;;;;;;1.30;1.30;;;8.40;96.10;;;;;;10397303;28;20202;-84
2022/02/16 06:02:28;;;;;;;1.30;1.20;;;8.40;96.40;;;;;;10407247;28;20600;-84
2022/02/16 06:07:30;;;;;;;1.37;1.30;;;8.40;96.60;;;;;;10428897;28;20226;-81
2022/02/16 06:12:34;;;;;;;1.20;1.20;;;8.50;96.60;;;;;;10397529;28;20249;-80
2022/02/16 06:17:37;;;;;;;1.20;1.20;;;8.50;96.50;;;;;;10389489;28;20249;-84
2022/02/16 06:22:41;;;;;;;1.23;1.17;;;8.50;96.20;;;;;;10403748;28;20229;-82
2022/02/16 06:27:46;;;;;;;1.20;1.20;;;8.50;96.60;;;;;;10402798;28;20218;-84
2022/02/16 06:32:48;;;;;;;1.43;1.33;;;8.60;96.60;;;;;;10384157;28;20228;-85
2022/02/16 06:37:51;;;;;;;1.57;1.47;;;8.50;97.10;;;;;;10391193;28;20218;-85
2022/02/16 06:42:54;;;;;;;1.37;1.27;;;8.50;96.70;;;;;;10376494;28;20226;-85
2022/02/16 06:47:58;;;;;;;1.30;1.20;;;8.60;97.40;;;;;;10385908;28;20217;-83
2022/02/16 06:53:01;;;;;;;1.37;1.20;;;8.60;97.50;;;;;;10387973;28;20226;-83
2022/02/16 06:58:05;;;;;;;2.30;1.30;;;8.70;97.10;;;;;;10405251;28;20221;-82
2022/02/16 07:03:08;;;;;;;2.80;1.30;;;8.70;96.80;;;;;;10397284;28;20214;-83
2022/02/16 07:08:15;;;;;;;1.30;1.30;;;8.70;97.20;;;;;;10360041;28;20226;-84
2022/02/16 07:13:19;;;;;;;1.40;1.30;;;8.70;97.20;;;;;;10405101;28;20568;-83
2022/02/16 07:18:21;;;;;;;1.40;1.30;;;8.70;98.30;;;;;;10383403;28;20194;-83
2022/02/16 07:23:30;;;;;;;1.27;0.90;;;8.60;98.70;;;;;;10414634;28;20297;-83
2022/02/16 07:28:34;;;;;;;0.87;0.87;;;8.60;99.20;;;;;;10392055;28;20231;-81
2022/02/16 07:33:37;;;;;;;1.53;1.43;;;8.50;99.20;;;;;;10360864;28;20275;-82
2022/02/16 07:38:39;;;;;;;1.60;1.50;;;8.30;99.90;;;;;;10403175;28;20249;-82
2022/02/16 07:43:42;;;;;;;4.20;1.70;;;8.20;99.90;;;;;;10391314;28;20712;-82
2022/02/16 07:49:03;;;;;;;2.00;1.73;;;8.10;99.90;;;;;;10407137;28;20324;-83
2022/02/16 07:54:24;;;;;;;2.30;2.20;;;8.00;99.90;;;;;;10397482;28;20376;-82
2022/02/16 07:59:43;;;;;;;2.33;2.23;;;7.80;99.90;;;;;;10378119;28;20202;-81
2022/02/16 08:05:00;;;;;;;4.53;4.33;;;7.60;99.90;;;;;;10393317;28;20249;-82
2022/02/16 08:10:03;;;;;;;5.03;4.90;;;7.60;99.90;;;;;;10396346;28;20256;-81
2022/02/16 08:15:08;;;;;;;5.47;5.27;;;7.40;99.90;;;;;;10411940;28;20373;-80
2022/02/16 08:20:11;;;;;;;4.90;4.70;;;7.40;99.90;;;;;;10411788;28;20202;-80
2022/02/16 08:25:32;;;;;;;5.37;5.13;;;7.30;99.90;;;;;;10406542;28;20327;-79
2022/02/16 08:30:41;;;;;;;6.00;5.70;;;7.30;99.90;;;;;;10368691;28;20207;-80
2022/02/16 08:35:51;;;;;;;4.80;4.60;;;7.20;99.90;;;;;;10384877;28;20218;-79
2022/02/16 08:40:53;;;;;;;5.00;4.80;;;7.20;99.90;;;;;;10398615;28;20205;-82
2022/02/16 08:45:58;;;;;;;5.43;5.23;;;7.20;99.90;;;;;;10417524;28;20218;-81
2022/02/16 08:51:00;;;;;;;5.47;5.17;;;7.20;99.90;;;;;;10421030;28;20658;-81
2022/02/16 08:56:02;;;;;;;4.90;4.70;;;7.20;99.90;;;;;;10432025;28;20214;-79
2022/02/16 09:01:06;;;;;;;6.20;5.87;;;7.10;99.90;;;;;;10401734;28;20194;-79
2022/02/16 09:06:08;;;;;;;5.50;5.20;;;7.10;99.90;;;;;;10410486;28;20242;-79
2022/02/16 09:11:12;;;;;;;5.77;5.57;;;7.10;99.90;;;;;;10410081;28;20194;-79
2022/02/16 09:16:15;;;;;;;3.30;3.20;;;7.20;99.90;;;;;;10403786;28;20222;-80
2022/02/16 09:21:18;;;;;;;6.00;5.60;;;7.10;99.90;;;;;;10411420;28;20237;-80
2022/02/16 09:26:20;;;;;;;4.43;4.23;;;7.10;99.90;;;;;;10436836;28;20221;-80
2022/02/16 09:31:24;;;;;;;5.10;4.87;;;7.20;99.90;;;;;;10429311;28;20240;-80
2022/02/16 09:36:30;;;;;;;5.67;5.47;;;7.30;99.90;;;;;;10422407;28;20675;-81
2022/02/16 09:41:32;;;;;;;5.10;4.90;;;7.40;99.90;;;;;;10403386;28;20233;-81
2022/02/16 09:46:36;;;;;;;4.17;3.97;;;7.50;99.90;;;;;;10380353;28;20221;-81
2022/02/16 09:51:39;;;;;;;5.27;5.00;;;7.40;99.90;;;;;;10410425;28;20282;-81
2022/02/16 09:56:43;;;;;;;3.50;3.37;;;7.50;99.90;;;;;;10438284;28;20198;-79
2022/02/16 10:02:08;;;;;;;4.10;3.90;;;7.50;99.90;;;;;;10408416;28;20207;-79
2022/02/16 10:07:24;;;;;;;1.40;1.40;;;7.60;99.90;;;;;;10415381;28;20711;-79
2022/02/16 10:12:32;;;;;;;3.00;2.80;;;7.70;99.90;;;;;;10430970;28;20221;-79
2022/02/16 10:17:36;;;;;;;2.33;2.33;;;7.80;99.90;;;;;;10398633;28;20684;-81
2022/02/16 10:22:43;;;;;;;4.20;1.90;;;7.90;99.90;;;;;;10390731;28;20229;-79
2022/02/16 10:28:10;;;;;;;2.03;1.53;;;8.10;99.90;;;;;;10402029;28;20274;-79
2022/02/16 10:33:23;;;;;;;1.50;1.40;;;8.30;99.90;;;;;;10402468;28;20596;-79
2022/02/16 10:38:25;;;;;;;1.10;1.10;;;8.40;99.90;;;;;;10409217;28;20198;-79
2022/02/16 10:43:36;;;;;;;1.80;1.70;;;8.60;99.90;;;;;;10432958;28;20243;-81
2022/02/16 10:48:39;;;;;;;1.57;1.47;;;8.70;99.90;;;;;;10434473;28;20226;-81
2022/02/16 10:53:42;;;;;;;1.57;1.50;;;8.90;99.90;;;;;;10413730;28;20315;-79
2022/02/16 10:58:44;;;;;;;1.43;1.43;;;9.00;99.90;;;;;;10438701;28;20229;-80
2022/02/16 11:03:51;;;;;;;2.10;1.80;;;9.20;99.90;;;;;;10418087;28;20718;-81
2022/02/16 11:08:54;;;;;;;2.00;1.90;;;9.30;99.90;;;;;;10412801;28;20217;-79
2022/02/16 11:14:03;;;;;;;1.40;1.40;;;9.50;99.90;;;;;;10432639;28;20240;-81
2022/02/16 11:19:22;;;;;;;1.60;1.60;;;9.60;99.90;;;;;;10435504;28;20198;-83
2022/02/16 11:24:29;;;;;;;1.43;1.33;;;9.70;99.90;;;;;;10416791;28;20272;-82
2022/02/16 11:29:41;;;;;;;1.50;1.40;;;9.80;99.90;;;;;;10422271;28;20222;-80
2022/02/16 11:34:45;;;;;;;1.50;1.50;;;10.00;99.90;;;;;;10386941;28;20338;-81
2022/02/16 11:40:07;;;;;;;1.50;1.50;;;10.10;99.90;;;;;;10398896;28;20666;-80
2022/02/16 11:45:10;;;;;;;1.37;1.37;;;10.30;99.90;;;;;;10423915;28;20222;-80
2022/02/16 11:50:43;;;;;;;1.40;1.40;;;10.50;99.90;;;;;;10430459;28;20218;-81
2022/02/16 11:55:46;;;;;;;1.10;1.10;;;10.70;99.90;;;;;;10323848;28;20314;-81
2022/02/16 12:01:08;;;;;;;1.40;1.20;;;10.70;99.90;;;;;;10426480;28;20229;-82
2022/02/16 12:06:15;;;;;;;1.13;0.90;;;10.70;99.90;;;;;;10411603;28;20682;-83
2022/02/16 12:11:23;;;;;;;2.73;1.10;;;10.80;99.90;;;;;;10403522;28;20204;-84
2022/02/16 12:16:28;;;;;;;0.90;0.80;;;10.90;99.90;;;;;;10422111;28;20276;-84
2022/02/16 12:21:34;;;;;;;0.80;0.70;;;10.80;99.90;;;;;;10381504;28;20198;-84
2022/02/16 12:26:38;;;;;;;1.00;0.90;;;10.80;99.90;;;;;;10414838;28;20226;-83
2022/02/16 12:31:43;;;;;;;1.17;0.90;;;10.90;99.90;;;;;;10381707;28;20280;-83
2022/02/16 12:36:48;;;;;;;0.73;0.73;;;10.80;99.90;;;;;;10393792;28;20198;-83
2022/02/16 12:41:51;;;;;;;1.13;1.03;;;10.80;99.90;;;;;;10397556;28;20673;-81
2022/02/16 12:46:53;;;;;;;0.70;0.70;;;10.80;99.90;;;;;;10390886;28;20312;-82
2022/02/16 12:51:58;;;;;;;0.80;0.77;;;10.70;99.90;;;;;;10398734;28;20285;-83
2022/02/16 12:57:05;;;;;;;0.93;0.83;;;10.70;99.90;;;;;;10395950;28;20574;-85
2022/02/16 13:02:20;;;;;;;1.73;0.90;;;10.80;99.90;;;;;;10383600;28;20221;-80
2022/02/16 13:07:25;;;;;;;1.10;1.00;;;10.80;99.90;;;;;;10417343;28;20221;-81
2022/02/16 13:12:34;;;;;;;1.10;1.00;;;10.90;99.90;;;;;;10399820;28;20257;-83
2022/02/16 13:17:42;;;;;;;0.87;0.87;;;11.00;99.90;;;;;;10418832;28;20194;-80
2022/02/16 13:22:53;;;;;;;0.90;0.90;;;11.20;99.90;;;;;;10409339;28;20245;-81
2022/02/16 13:27:59;;;;;;;0.97;0.97;;;11.30;99.90;;;;;;10417062;28;20214;-83
2022/02/16 13:33:14;;;;;;;0.90;0.60;;;11.40;99.90;;;;;;10437872;28;20232;-80
2022/02/16 13:38:25;;;;;;;0.87;0.87;;;11.50;99.90;;;;;;10436615;28;20228;-81
2022/02/16 13:43:44;;;;;;;0.80;0.80;;;11.50;99.90;;;;;;10409021;28;20229;-83
2022/02/16 13:48:47;;;;;;;1.47;1.10;;;11.70;99.90;;;;;;10449020;28;20316;-82
2022/02/16 13:53:53;;;;;;;0.90;0.90;;;11.80;99.90;;;;;;10414273;28;20242;-82
2022/02/16 13:59:05;;;;;;;0.80;0.80;;;11.90;99.90;;;;;;10402387;28;20217;-82
2022/02/16 14:04:09;;;;;;;0.90;0.90;;;11.90;99.90;;;;;;10415247;28;20221;-83
2022/02/16 14:09:13;;;;;;;0.80;0.80;;;12.00;99.90;;;;;;10408071;28;20324;-81
2022/02/16 14:14:15;;;;;;;0.80;0.80;;;12.10;99.90;;;;;;10403701;28;20229;-82
2022/02/16 14:19:23;;;;;;;1.10;1.07;;;12.10;99.90;;;;;;10400813;28;20206;-82
2022/02/16 14:24:28;;;;;;;0.70;0.70;;;12.10;99.90;;;;;;10407051;28;20226;-83
2022/02/16 14:29:31;;;;;;;1.70;0.90;;;12.10;99.90;;;;;;10410953;28;20590;-81
2022/02/16 14:34:33;;;;;;;1.17;1.17;;;12.20;99.90;;;;;;10385522;28;20754;-81
2022/02/16 14:39:37;;;;;;;0.70;0.70;;;12.20;99.90;;;;;;10407976;28;20277;-82
2022/02/16 14:44:39;;;;;;;0.80;0.70;;;12.20;99.90;;;;;;10414697;28;20267;-83
2022/02/16 14:49:42;;;;;;;0.80;0.80;;;12.30;99.90;;;;;;10388525;28;20587;-82
2022/02/16 14:54:45;;;;;;;1.00;1.00;;;12.20;99.90;;;;;;10392720;28;20698;-84
2022/02/16 14:59:48;;;;;;;0.70;0.60;;;12.20;99.90;;;;;;10377495;28;20305;-82
2022/02/16 15:04:50;;;;;;;0.80;0.80;;;12.10;99.90;;;;;;10376585;28;20706;-81
2022/02/16 15:09:53;;;;;;;1.07;1.07;;;12.00;99.90;;;;;;10396243;28;20654;-81
2022/02/16 15:14:55;;;;;;;1.07;1.07;;;11.90;99.90;;;;;;10401069;28;20249;-82
2022/02/16 15:19:57;;;;;;;0.90;0.90;;;11.90;99.90;;;;;;10399100;28;20204;-82
2022/02/16 15:25:03;;;;;;;1.23;1.23;;;11.90;99.90;;;;;;10413705;28;20264;-82
2022/02/16 15:30:06;;;;;;;1.10;1.10;;;11.90;99.90;;;;;;10406434;28;20218;-81
2022/02/16 15:35:08;;;;;;;1.00;1.00;;;11.80;99.90;;;;;;10379944;28;20253;-82
2022/02/16 15:40:21;;;;;;;1.07;1.07;;;11.90;99.90;;;;;;10372929;28;20580;-82
2022/02/16 15:45:24;;;;;;;1.33;1.17;;;11.80;99.90;;;;;;10390444;28;20600;-82
2022/02/16 15:50:26;;;;;;;0.90;0.90;;;11.80;99.90;;;;;;10403179;28;20286;-83
2022/02/16 15:55:30;;;;;;;2.37;1.10;;;11.80;99.90;;;;;;10419680;28;20233;-81
2022/02/16 16:00:35;;;;;;;1.10;1.10;;;11.80;99.90;;;;;;10392057;28;20190;-83
2022/02/16 16:05:37;;;;;;;1.00;1.00;;;11.80;99.90;;;;;;10388066;28;20264;-84
2022/02/16 16:10:41;;;;;;;1.40;1.30;;;11.80;99.90;;;;;;10394709;28;20269;-83
2022/02/16 16:15:44;;;;;;;1.70;1.10;;;11.80;99.90;;;;;;10431016;28;20260;-82
2022/02/16 16:20:46;;;;;;;1.20;1.20;;;11.80;99.90;;;;;;10431634;28;20662;-84
2022/02/16 16:25:50;;;;;;;1.10;1.00;;;11.80;99.90;;;;;;10396312;28;20229;-81
2022/02/16 16:30:54;;;;;;;1.30;1.20;;;11.80;99.90;;;;;;10408759;28;20308;-83
2022/02/16 16:35:56;;;;;;;1.40;1.30;;;11.80;99.90;;;;;;10424504;28;20225;-81
2022/02/16 16:41:00;;;;;;;1.47;1.37;;;11.80;99.90;;;;;;10408740;28;20230;-81
2022/02/16 16:46:05;;;;;;;1.30;1.20;;;11.80;99.90;;;;;;10413298;28;20694;-83
2022/02/16 16:51:07;;;;;;;1.10;1.00;;;11.90;99.90;;;;;;10396248;28;20241;-83
2022/02/16 16:56:11;;;;;;;1.60;1.50;;;11.90;99.90;;;;;;10420256;28;20222;-84
2022/02/16 17:01:17;;;;;;;1.70;1.60;;;11.80;99.90;;;;;;10416768;28;20659;-83
2022/02/16 17:06:20;;;;;;;1.60;1.50;;;11.70;99.90;;;;;;10388687;28;20218;-85
2022/02/16 17:11:24;;;;;;;1.60;1.50;;;11.70;99.90;;;;;;10392703;28;20244;-82
2022/02/16 17:16:26;;;;;;;1.70;1.60;;;11.70;99.90;;;;;;10414252;28;20225;-83
2022/02/16 17:21:28;;;;;;;1.20;1.20;;;11.70;99.90;;;;;;10407828;28;20218;-82
2022/02/16 17:26:32;;;;;;;0.90;0.90;;;11.80;99.90;;;;;;10423292;28;20265;-85
2022/02/16 17:31:34;;;;;;;1.30;1.20;;;11.70;99.90;;;;;;10404410;28;20244;-83
2022/02/16 17:36:36;;;;;;;1.17;1.17;;;11.70;99.90;;;;;;10398412;28;20226;-80
2022/02/16 17:41:40;;;;;;;1.43;1.33;;;11.80;99.90;;;;;;10406484;28;20201;-84
2022/02/16 17:46:43;;;;;;;1.20;1.20;;;11.60;99.90;;;;;;10388221;28;20224;-82
2022/02/16 17:51:46;;;;;;;1.40;1.40;;;11.60;99.90;;;;;;10423431;28;20221;-83
2022/02/16 17:56:52;;;;;;;1.00;1.00;;;11.50;99.90;;;;;;10392118;28;20534;-82
2022/02/16 18:01:55;;;;;;;1.33;1.30;;;11.40;99.90;;;;;;10413536;28;20665;-84
2022/02/16 18:06:57;;;;;;;1.20;1.20;;;11.40;99.90;;;;;;10391223;28;20676;-81
2022/02/16 18:12:01;;;;;;;1.63;1.53;;;11.50;99.90;;;;;;10413894;28;20256;-82
2022/02/16 18:17:05;;;;;;;1.53;1.43;;;11.40;99.90;;;;;;10416581;28;20194;-82
2022/02/16 18:22:07;;;;;;;1.40;1.30;;;11.40;99.90;;;;;;10415722;28;20602;-84
2022/02/16 18:27:12;;;;;;;1.67;1.57;;;11.50;99.90;;;;;;10403583;28;20238;-82
2022/02/16 18:32:14;;;;;;;1.53;1.43;;;11.60;99.90;;;;;;10409593;28;20247;-85
2022/02/16 18:37:17;;;;;;;1.43;1.33;;;11.70;99.90;;;;;;10399234;28;20209;-84
2022/02/16 18:42:21;;;;;;;1.20;1.20;;;11.60;99.90;;;;;;10398991;28;20251;-83
2022/02/16 18:47:23;;;;;;;1.50;1.40;;;11.70;99.90;;;;;;10419888;28;20202;-81
2022/02/16 18:52:25;;;;;;;1.20;1.20;;;11.70;99.90;;;;;;10386612;28;20222;-83
2022/02/16 18:57:31;;;;;;;1.00;1.00;;;11.80;99.90;;;;;;10406337;28;20237;-85
2022/02/16 19:02:33;;;;;;;1.20;1.17;;;11.80;99.90;;;;;;10403410;28;20237;-85
2022/02/16 19:07:35;;;;;;;1.30;1.30;;;11.70;99.90;;;;;;10398140;28;20208;-84
2022/02/16 19:12:39;;;;;;;1.17;1.17;;;11.80;99.90;;;;;;10408980;28;20698;-81
2022/02/16 19:17:41;;;;;;;1.47;1.47;;;11.80;99.90;;;;;;10422453;28;20202;-81
2022/02/16 19:22:44;;;;;;;1.00;1.00;;;11.90;99.90;;;;;;10383688;28;20281;-81
2022/02/16 19:27:47;;;;;;;1.23;1.20;;;11.90;99.90;;;;;;10377012;28;20292;-81
2022/02/16 19:32:50;;;;;;;1.40;1.30;;;11.90;99.90;;;;;;10405642;28;20221;-83
2022/02/16 19:37:54;;;;;;;0.90;0.90;;;11.90;99.90;;;;;;10413638;28;20277;-82
2022/02/16 19:48:43;;;;;;;1.30;1.30;;;12.00;99.90;;;;;;10373352;28;20304;-84
2022/02/16 19:53:45;;;;;;;0.80;0.80;;;12.10;99.90;;;;;;10397213;28;20305;-82
2022/02/16 19:58:48;;;;;;;1.20;1.20;;;12.10;99.90;;;;;;10391932;28;20294;-81
2022/02/16 20:03:52;;;;;;;1.47;1.37;;;12.10;99.90;;;;;;10403426;28;20222;-83
2022/02/16 20:08:54;;;;;;;1.60;1.50;;;12.20;99.90;;;;;;10404080;28;20220;-82
2022/02/16 20:13:58;;;;;;;1.63;1.20;;;12.20;99.90;;;;;;10404034;28;20687;-82
2022/02/16 20:19:05;;;;;;;1.10;1.10;;;12.20;99.90;;;;;;10435686;22;20693;-83
2022/02/16 20:24:07;;;;;;;1.37;1.27;;;12.20;99.90;;;;;;10456187;28;20275;-82
2022/02/16 20:29:11;;;;;;;1.00;1.00;;;12.30;99.90;;;;;;10440100;28;20221;-83
2022/02/16 20:34:14;;;;;;;1.30;1.27;;;12.30;99.90;;;;;;10447576;28;20239;-81
2022/02/16 20:39:18;;;;;;;1.10;1.00;;;12.30;99.90;;;;;;10427413;28;20221;-81
2022/02/16 20:44:20;;;;;;;1.57;1.43;;;12.30;99.90;;;;;;10429342;28;20220;-82
2022/02/16 20:49:23;;;;;;;1.00;1.00;;;12.40;99.90;;;;;;10468759;28;20303;-81
2022/02/16 20:54:26;;;;;;;1.57;1.40;;;12.40;99.90;;;;;;10445089;28;20675;-81
2022/02/16 20:59:30;;;;;;;1.40;1.30;;;12.40;99.90;;;;;;10441426;28;20241;-81
2022/02/16 21:04:36;;;;;;;1.20;1.13;;;12.40;99.90;;;;;;10421591;28;20748;-81
2022/02/16 21:09:38;;;;;;;1.00;1.00;;;12.40;99.90;;;;;;10439986;28;20225;-81
2022/02/16 21:14:40;;;;;;;1.03;1.03;;;12.40;99.90;;;;;;10448284;28;20679;-82
2022/02/16 21:19:44;;;;;;;1.13;1.13;;;12.40;99.90;;;;;;10462508;28;20217;-81
2022/02/16 21:24:46;;;;;;;1.43;1.33;;;12.40;99.90;;;;;;10444181;28;20292;-81
2022/02/16 21:29:51;;;;;;;1.17;1.10;;;12.50;99.90;;;;;;10460155;28;20225;-82
2022/02/16 21:34:55;;;;;;;1.10;1.10;;;12.50;99.90;;;;;;10440601;28;20661;-82
2022/02/16 21:40:02;;;;;;;1.37;1.10;;;12.50;99.90;;;;;;10429348;28;20303;-82
2022/02/16 21:45:06;;;;;;;1.20;1.10;;;12.50;99.90;;;;;;10442547;28;20208;-81
2022/02/16 21:50:18;;;;;;;1.17;1.17;;;12.60;99.90;;;;;;10443666;28;20221;-82
2022/02/16 21:55:23;;;;;;;1.30;1.20;;;12.60;99.90;;;;;;10445434;28;20276;-81
2022/02/16 22:00:25;;;;;;;2.23;1.20;;;12.60;99.90;;;;;;10453509;28;20244;-81
2022/02/16 22:05:29;;;;;;;1.00;1.00;;;12.60;99.90;;;;;;10447679;28;20699;-82
2022/02/16 22:10:31;;;;;;;1.10;1.10;;;12.70;99.90;;;;;;10445023;28;20227;-82
2022/02/16 22:15:33;;;;;;;1.00;1.00;;;12.60;99.90;;;;;;10427520;28;20273;-81
2022/02/16 22:20:36;;;;;;;1.10;1.10;;;12.70;99.90;;;;;;10443137;28;20233;-79
2022/02/16 22:25:39;;;;;;;1.33;1.33;;;12.70;99.90;;;;;;10456990;28;20228;-81
2022/02/16 22:30:41;;;;;;;1.40;1.30;;;12.60;99.90;;;;;;10437194;28;20221;-81
2022/02/16 22:35:47;;;;;;;1.20;1.20;;;12.40;99.90;;;;;;10442871;28;20205;-81
2022/02/16 22:40:49;;;;;;;1.27;1.17;;;12.30;99.90;;;;;;10458602;28;20642;-81
2022/02/16 22:45:55;;;;;;;1.40;1.30;;;12.20;99.90;;;;;;10438522;28;20258;-81
2022/02/16 22:50:58;;;;;;;1.23;1.10;;;12.10;99.90;;;;;;10436468;28;20239;-81
2022/02/16 22:56:19;;;;;;;1.20;1.20;;;12.10;99.90;;;;;;10444578;28;20209;-81
2022/02/16 23:01:21;;;;;;;1.10;1.10;;;12.10;99.90;;;;;;10443262;28;20220;-81
2022/02/16 23:11:44;;;;;;;0.90;0.90;;;12.10;99.90;;;;;;10458814;28;20225;-80
2022/02/16 23:16:46;;;;;;;1.00;1.00;;;12.20;99.90;;;;;;10466663;28;20201;-81
2022/02/16 23:21:55;;;;;;;1.63;1.37;;;12.30;99.90;;;;;;10465161;28;20675;-81
2022/02/16 23:26:57;;;;;;;1.00;1.00;;;12.30;99.90;;;;;;10457859;28;20266;-82
2022/02/16 23:31:59;;;;;;;1.13;1.13;;;12.30;99.90;;;;;;10444857;28;20319;-82
2022/02/16 23:37:04;;;;;;;1.30;1.30;;;12.40;99.90;;;;;;10452153;28;20197;-80
2022/02/16 23:42:08;;;;;;;1.20;1.20;;;12.50;99.90;;;;;;10476203;28;20209;-80
2022/02/16 23:47:10;;;;;;;1.20;1.20;;;12.50;99.90;;;;;;10472313;28;20212;-82
2022/02/16 23:52:24;;;;;;;1.20;1.10;;;12.50;99.90;;;;;;10438491;28;20227;-81
2022/02/16 23:57:33;;;;;;;1.20;1.20;;;12.60;99.90;;;;;;10446931;28;20228;-80
